createdAt,value
2023-04-15T00:00:44.570Z,99730.41
2023-04-15T00:03:47.949Z,99729.00
2023-04-15T00:06:53.269Z,99721.91
2023-04-15T00:09:58.075Z,99724.53
2023-04-15T00:13:02.379Z,99732.03
2023-04-15T00:16:06.655Z,99725.72
2023-04-15T00:19:09.755Z,99726.06
2023-04-15T00:22:13.940Z,99726.47
2023-04-15T00:25:17.033Z,99729.28
2023-04-15T00:28:21.449Z,99735.53
2023-04-15T00:31:24.318Z,99733.72
2023-04-15T00:34:28.294Z,99729.06
2023-04-15T00:37:31.353Z,99726.81
2023-04-15T00:40:34.667Z,99720.09
2023-04-15T00:43:37.581Z,99714.00
2023-04-15T00:46:41.698Z,99716.22
2023-04-15T00:49:44.563Z,99720.00
2023-04-15T00:52:47.371Z,99722.13
2023-04-15T00:55:51.592Z,99725.72
2023-04-15T00:58:55.235Z,99730.81
2023-04-15T01:01:58.695Z,99741.75
2023-04-15T01:05:01.593Z,99737.47
2023-04-15T01:08:04.619Z,99740.75
2023-04-15T01:11:08.372Z,99742.09
2023-04-15T01:14:11.461Z,99744.69
2023-04-15T01:17:14.718Z,99741.88
2023-04-15T01:20:18.092Z,99750.56
2023-04-15T01:23:23.188Z,99747.41
2023-04-15T01:26:26.322Z,99754.97
2023-04-15T01:29:29.904Z,99755.94
2023-04-15T01:32:32.783Z,99753.09
2023-04-15T01:35:35.591Z,99756.56
2023-04-15T01:38:38.742Z,99760.44
2023-04-15T01:41:42.580Z,99758.06
2023-04-15T01:44:45.350Z,99759.47
2023-04-15T01:47:48.209Z,99754.03
2023-04-15T01:50:52.150Z,99756.69
2023-04-15T01:53:57.188Z,99758.13
2023-04-15T01:56:59.983Z,99754.69
2023-04-15T02:00:04.631Z,99764.97
2023-04-15T02:03:16.097Z,99768.84
2023-04-15T02:06:18.867Z,99776.53
2023-04-15T02:09:21.853Z,99770.31
2023-04-15T02:12:24.849Z,99765.06
2023-04-15T02:15:27.960Z,99768.91
2023-04-15T02:18:31.353Z,99751.31
2023-04-15T02:21:35.634Z,99755.94
2023-04-15T02:24:38.810Z,99759.44
2023-04-15T02:27:41.507Z,99758.63
2023-04-15T02:30:48.553Z,99757.19
2023-04-15T02:33:51.408Z,99757.00
2023-04-15T02:36:57.489Z,99759.81
2023-04-15T02:40:01.271Z,99757.81
2023-04-15T02:43:05.521Z,99762.09
2023-04-15T02:46:08.842Z,99757.19
2023-04-15T02:49:11.756Z,99755.00
2023-04-15T02:52:14.669Z,99768.41
2023-04-15T02:55:18.189Z,99771.63
2023-04-15T02:58:21.305Z,99771.56
2023-04-15T03:01:24.375Z,99770.78
2023-04-15T03:04:30.217Z,99771.00
2023-04-15T03:07:33.500Z,99768.75
2023-04-15T03:10:37.737Z,99770.59
2023-04-15T03:13:42.059Z,99762.72
2023-04-15T03:16:54.674Z,99767.59
2023-04-15T03:19:57.581Z,99769.00
2023-04-15T03:23:00.663Z,99765.31
2023-04-15T03:26:05.662Z,99766.22
2023-04-15T03:29:10.082Z,99770.59
2023-04-15T03:32:15.338Z,99761.66
2023-04-15T03:35:18.162Z,99767.09
2023-04-15T03:38:20.926Z,99772.31
2023-04-15T03:41:24.674Z,99767.66
2023-04-15T03:44:28.189Z,99772.88
2023-04-15T03:47:31.224Z,99759.94
2023-04-15T03:50:34.201Z,99756.91
2023-04-15T03:53:37.523Z,99756.44
2023-04-15T03:56:40.296Z,99762.09
2023-04-15T03:59:43.033Z,99759.47
2023-04-15T04:02:46.387Z,99762.66
2023-04-15T04:05:49.790Z,99770.75
2023-04-15T04:08:53.178Z,99766.53
2023-04-15T04:11:56.573Z,99774.41
2023-04-15T04:14:59.317Z,99768.41
2023-04-15T04:18:02.194Z,99775.72
2023-04-15T04:21:05.539Z,99777.75
2023-04-15T04:24:08.374Z,99778.78
2023-04-15T04:27:11.385Z,99778.22
2023-04-15T04:30:14.178Z,99779.69
2023-04-15T04:33:17.054Z,99782.56
2023-04-15T04:36:19.926Z,99784.91
2023-04-15T04:39:22.869Z,99783.31
2023-04-15T04:42:25.633Z,99783.66
2023-04-15T04:45:28.381Z,99778.78
2023-04-15T04:48:31.469Z,99782.63
2023-04-15T04:51:34.586Z,99782.88
2023-04-15T04:54:37.798Z,99784.75
2023-04-15T04:57:40.747Z,99782.91
2023-04-15T05:00:53.253Z,99789.00
2023-04-15T05:03:56.671Z,99787.78
2023-04-15T05:07:00.110Z,99798.34
2023-04-15T05:10:03.910Z,99797.13
2023-04-15T05:13:07.143Z,99786.56
2023-04-15T05:16:10.081Z,99789.19
2023-04-15T05:19:13.017Z,99793.47
2023-04-15T05:22:16.193Z,99794.88
2023-04-15T05:25:19.244Z,99800.34
2023-04-15T05:28:22.031Z,99806.63
2023-04-15T05:31:25.147Z,99809.88
2023-04-15T05:34:28.089Z,99800.34
2023-04-15T05:37:30.903Z,99808.66
2023-04-15T05:40:33.639Z,99813.50
2023-04-15T05:43:36.767Z,99823.22
2023-04-15T05:46:39.769Z,99819.97
2023-04-15T05:49:42.649Z,99820.31
2023-04-15T05:52:46.239Z,99818.63
2023-04-15T05:55:49.113Z,99815.09
2023-04-15T05:58:53.735Z,99817.56
2023-04-15T06:01:57.419Z,99828.66
2023-04-15T06:05:01.315Z,99830.41
2023-04-15T06:08:04.317Z,99831.56
2023-04-15T06:11:07.444Z,99836.50
2023-04-15T06:14:10.453Z,99835.66
2023-04-15T06:17:15.166Z,99833.00
2023-04-15T06:20:18.094Z,99839.59
2023-04-15T06:23:21.255Z,99847.97
2023-04-15T06:26:24.030Z,99847.47
2023-04-15T06:29:26.828Z,99857.25
2023-04-15T06:32:30.262Z,99855.66
2023-04-15T06:35:33.039Z,99847.75
2023-04-15T06:38:36.147Z,99851.59
2023-04-15T06:41:39.102Z,99839.03
2023-04-15T06:44:42.628Z,99836.44
2023-04-15T06:47:45.540Z,99841.78
2023-04-15T06:50:49.898Z,99838.63
2023-04-15T06:53:52.927Z,99836.50
2023-04-15T06:56:55.920Z,99847.88
2023-04-15T06:59:58.864Z,99849.66
2023-04-15T07:03:04.007Z,99850.19
2023-04-15T07:06:07.794Z,99858.34
2023-04-15T07:09:10.855Z,99857.44
2023-04-15T07:12:14.203Z,99856.25
2023-04-15T07:15:17.511Z,99858.84
2023-04-15T07:18:20.236Z,99873.06
2023-04-15T07:21:23.082Z,99871.66
2023-04-15T07:24:27.118Z,99866.81
2023-04-15T07:27:30.049Z,99869.19
2023-04-15T07:30:33.455Z,99868.50
2023-04-15T07:33:37.277Z,99876.72
2023-04-15T07:36:40.605Z,99862.16
2023-04-15T07:39:46.271Z,99865.94
2023-04-15T07:42:49.713Z,99871.06
2023-04-15T07:45:53.241Z,99876.03
2023-04-15T07:48:56.378Z,99875.78
2023-04-15T07:52:00.327Z,99870.56
2023-04-15T07:55:03.256Z,99882.50
2023-04-15T07:58:06.052Z,99884.84
2023-04-15T08:01:08.890Z,99885.81
2023-04-15T08:04:11.828Z,99900.88
2023-04-15T08:07:15.008Z,99883.75
2023-04-15T08:10:18.513Z,99900.28
2023-04-15T08:13:21.952Z,99904.22
2023-04-15T08:16:27.902Z,99904.34
2023-04-15T08:19:31.332Z,99902.03
2023-04-15T08:22:34.703Z,99902.81
2023-04-15T08:25:37.586Z,99904.44
2023-04-15T08:28:42.150Z,99909.72
2023-04-15T08:31:45.853Z,99906.72
2023-04-15T08:34:49.092Z,99908.91
2023-04-15T08:37:52.005Z,99914.81
2023-04-15T08:40:56.720Z,99915.19
2023-04-15T08:44:04.366Z,99923.28
2023-04-15T08:47:09.390Z,99924.06
2023-04-15T08:50:12.875Z,99925.88
2023-04-15T08:53:15.801Z,99936.28
2023-04-15T08:56:20.403Z,99940.63
2023-04-15T08:59:24.030Z,99945.31
2023-04-15T09:02:27.614Z,99942.94
2023-04-15T09:05:33.869Z,99953.94
2023-04-15T09:08:36.713Z,99956.44
2023-04-15T09:11:39.825Z,99948.75
2023-04-15T09:14:43.554Z,99955.16
2023-04-15T09:17:47.609Z,99960.13
2023-04-15T09:20:53.799Z,99950.47
2023-04-15T09:24:00.027Z,99951.50
2023-04-15T09:27:03.858Z,99954.69
2023-04-15T09:30:09.354Z,99950.44
2023-04-15T09:33:14.978Z,99961.00
2023-04-15T09:36:18.317Z,99952.56
2023-04-15T09:39:21.572Z,99956.88
2023-04-15T09:42:24.827Z,99954.28
2023-04-15T09:45:29.653Z,99949.81
2023-04-15T09:48:32.752Z,99946.09
2023-04-15T09:51:36.222Z,99946.22
2023-04-15T09:54:39.577Z,99946.06
2023-04-15T09:57:42.581Z,99947.72
2023-04-15T10:00:47.781Z,99948.28
2023-04-15T10:03:51.847Z,99945.88
2023-04-15T10:06:54.719Z,99956.75
2023-04-15T10:10:00.060Z,99950.16
2023-04-15T10:13:03.011Z,99950.91
2023-04-15T10:16:07.227Z,99945.63
2023-04-15T10:19:11.472Z,99935.97
2023-04-15T10:22:15.791Z,99941.03
2023-04-15T10:25:19.263Z,99943.25
2023-04-15T10:28:25.685Z,99942.94
2023-04-15T10:31:29.910Z,99942.06
2023-04-15T10:34:33.015Z,99940.53
2023-04-15T10:37:37.735Z,99942.69
2023-04-15T10:40:40.787Z,99939.50
2023-04-15T10:44:03.373Z,99930.47
2023-04-15T10:47:19.122Z,99932.34
2023-04-15T10:50:22.661Z,99933.94
2023-04-15T10:53:32.032Z,99943.31
2023-04-15T10:56:34.909Z,99944.53
2023-04-15T10:59:59.168Z,99945.34
2023-04-15T11:03:09.634Z,99942.06
2023-04-15T11:06:12.740Z,99946.47
2023-04-15T11:09:37.991Z,99937.00
2023-04-15T11:12:42.124Z,99941.84
2023-04-15T11:15:46.683Z,99932.63
2023-04-15T11:18:56.269Z,99934.50
2023-04-15T11:22:07.409Z,99932.53
2023-04-15T11:25:10.262Z,99928.66
2023-04-15T11:28:13.632Z,99929.19
2023-04-15T11:31:18.423Z,99934.25
2023-04-15T11:34:24.839Z,99933.41
2023-04-15T11:37:32.527Z,99926.72
2023-04-15T11:40:35.944Z,99929.78
2023-04-15T11:43:38.791Z,99926.13
2023-04-15T11:46:42.394Z,99936.16
2023-04-15T11:49:46.082Z,99932.56
2023-04-15T11:52:58.398Z,99922.22
2023-04-15T11:56:01.506Z,99927.91
2023-04-15T11:59:04.586Z,99924.72
2023-04-15T12:02:14.606Z,99934.53
2023-04-15T12:05:17.790Z,99942.38
2023-04-15T12:08:20.812Z,99936.81
2023-04-15T12:11:26.647Z,99936.19
2023-04-15T12:14:32.797Z,99942.63
2023-04-15T12:17:51.485Z,99933.47
2023-04-15T12:20:55.113Z,99935.91
2023-04-15T12:23:58.621Z,99930.84
2023-04-15T12:27:09.194Z,99934.06
2023-04-15T12:30:12.798Z,99934.56
2023-04-15T12:33:15.616Z,99935.50
2023-04-15T12:36:18.433Z,99928.03
2023-04-15T12:39:28.601Z,99930.66
2023-04-15T12:42:33.050Z,99930.94
2023-04-15T12:45:35.866Z,99944.03
2023-04-15T12:48:38.900Z,99940.16
2023-04-15T12:51:42.682Z,99938.38
2023-04-15T12:54:45.404Z,99939.72
2023-04-15T12:57:48.843Z,99926.44
2023-04-15T13:00:51.813Z,99930.84
2023-04-15T13:03:54.836Z,99935.41
2023-04-15T13:06:57.779Z,99930.31
2023-04-15T13:10:00.618Z,99928.44
2023-04-15T13:13:03.706Z,99934.31
2023-04-15T13:16:06.786Z,99933.25
2023-04-15T13:19:10.166Z,99936.22
2023-04-15T13:22:15.013Z,99935.94
2023-04-15T13:25:17.846Z,99933.50
2023-04-15T13:28:20.743Z,99926.03
2023-04-15T13:31:23.474Z,99926.84
2023-04-15T13:34:26.356Z,99926.28
2023-04-15T13:37:30.641Z,99930.06
2023-04-15T13:40:33.476Z,99933.78
2023-04-15T13:43:36.758Z,99921.28
2023-04-15T13:46:40.682Z,99930.84
2023-04-15T13:49:44.545Z,99922.47
2023-04-15T13:52:47.406Z,99926.13
2023-04-15T13:55:50.350Z,99927.31
2023-04-15T13:58:54.928Z,99932.53
2023-04-15T14:01:57.819Z,99934.13
2023-04-15T14:05:00.999Z,99926.81
2023-04-15T14:08:03.939Z,99925.16
2023-04-15T14:11:07.124Z,99926.31
2023-04-15T14:14:10.034Z,99931.16
2023-04-15T14:17:12.844Z,99938.88
2023-04-15T14:20:17.182Z,99931.25
2023-04-15T14:23:20.226Z,99937.66
2023-04-15T14:26:23.005Z,99939.41
2023-04-15T14:29:26.331Z,99942.88
2023-04-15T14:32:29.387Z,99933.97
2023-04-15T14:35:32.659Z,99928.13
2023-04-15T14:38:40.139Z,99937.16
2023-04-15T14:41:43.271Z,99940.16
2023-04-15T14:44:46.549Z,99941.81
2023-04-15T14:47:49.390Z,99943.69
2023-04-15T14:50:52.846Z,99943.13
2023-04-15T14:53:56.031Z,99946.66
2023-04-15T14:56:58.944Z,99937.00
2023-04-15T15:00:02.273Z,99948.78
2023-04-15T15:03:12.669Z,99940.78
2023-04-15T15:06:16.031Z,99946.91
2023-04-15T15:09:19.965Z,99946.16
2023-04-15T15:12:23.979Z,99949.91
2023-04-15T15:15:29.173Z,99946.66
2023-04-15T15:18:32.238Z,99949.88
2023-04-15T15:21:35.200Z,99946.94
2023-04-15T15:24:37.901Z,99945.88
2023-04-15T15:27:40.765Z,99942.91
2023-04-15T15:30:43.733Z,99945.88
2023-04-15T15:33:46.904Z,99931.91
2023-04-15T15:36:49.636Z,99944.31
2023-04-15T15:39:53.420Z,99942.44
2023-04-15T15:42:56.178Z,99955.28
2023-04-15T15:45:59.052Z,99961.00
2023-04-15T15:49:04.179Z,99961.13
2023-04-15T15:52:07.538Z,99962.78
2023-04-15T15:55:10.427Z,99967.31
2023-04-15T15:58:13.271Z,99965.50
2023-04-15T16:01:16.885Z,99974.50
2023-04-15T16:04:20.032Z,99964.47
2023-04-15T16:07:23.047Z,99981.84
2023-04-15T16:10:26.134Z,99973.53
2023-04-15T16:13:29.415Z,99970.75
2023-04-15T16:16:32.275Z,99966.41
2023-04-15T16:19:35.220Z,99964.66
2023-04-15T16:22:38.141Z,99961.38
2023-04-15T16:25:44.934Z,99958.09
2023-04-15T16:28:47.810Z,99965.53
2023-04-15T16:31:50.970Z,99966.47
2023-04-15T16:34:54.065Z,99977.88
2023-04-15T16:37:57.170Z,99987.16
2023-04-15T16:41:01.632Z,99988.75
2023-04-15T16:44:05.607Z,99997.63
2023-04-15T16:47:11.254Z,100002.38
2023-04-15T16:50:14.491Z,100014.94
2023-04-15T16:53:17.554Z,100084.69
2023-04-15T16:56:21.705Z,100134.47
2023-04-15T16:59:25.913Z,100105.44
2023-04-15T17:02:33.263Z,100151.50
2023-04-15T17:05:46.270Z,100142.97
2023-04-15T17:08:51.606Z,100194.41
2023-04-15T17:12:26.691Z,100188.91
2023-04-15T17:16:10.303Z,100204.13
2023-04-15T17:19:16.468Z,100190.56
2023-04-15T17:22:19.869Z,100155.59
2023-04-15T17:25:23.380Z,100167.19
2023-04-15T17:28:26.279Z,100174.09
2023-04-15T17:31:30.640Z,100173.06
2023-04-15T17:34:50.713Z,100156.34
2023-04-15T17:37:54.090Z,100143.53
2023-04-15T17:40:57.032Z,100145.78
2023-04-15T17:44:00.646Z,100118.72
2023-04-15T17:47:03.562Z,100113.22
2023-04-15T17:50:07.959Z,100094.31
2023-04-15T17:53:11.111Z,100108.16
2023-04-15T17:56:14.278Z,100123.63
2023-04-15T17:59:18.216Z,100137.88
2023-04-15T18:02:21.477Z,100155.13
2023-04-15T18:05:24.766Z,100165.72
2023-04-15T18:08:29.301Z,100185.03
2023-04-15T18:11:33.574Z,100189.09
2023-04-15T18:14:37.314Z,100204.56
2023-04-15T18:17:41.059Z,100211.47
2023-04-15T18:20:44.317Z,100216.34
2023-04-15T18:23:47.491Z,100224.28
2023-04-15T18:26:50.334Z,100232.44
2023-04-15T18:29:53.345Z,100243.22
2023-04-15T18:32:56.684Z,100239.56
2023-04-15T18:35:59.806Z,100238.72
2023-04-15T18:39:03.388Z,100212.28
2023-04-15T18:42:07.224Z,100190.94
2023-04-15T18:45:10.371Z,100169.34
2023-04-15T18:48:14.964Z,100189.72
2023-04-15T18:51:18.019Z,100201.72
2023-04-15T18:54:21.182Z,100213.13
2023-04-15T18:57:31.125Z,100219.84
2023-04-15T19:00:40.823Z,100210.28
2023-04-15T19:03:43.948Z,100213.34
2023-04-15T19:06:47.599Z,100214.16
2023-04-15T19:09:50.851Z,100217.38
2023-04-15T19:12:54.723Z,100210.69
2023-04-15T19:15:57.726Z,100211.06
2023-04-15T19:19:01.346Z,100208.84
2023-04-15T19:22:05.065Z,100214.31
2023-04-15T19:25:09.947Z,100223.25
2023-04-15T19:28:13.145Z,100236.69
2023-04-15T19:31:16.296Z,100227.53
2023-04-15T19:34:19.687Z,100232.00
2023-04-15T19:37:22.968Z,100240.53
2023-04-15T19:40:26.231Z,100241.75
2023-04-15T19:43:29.938Z,100230.59
2023-04-15T19:46:33.222Z,100237.47
2023-04-15T19:49:36.724Z,100243.59
2023-04-15T19:52:40.080Z,100250.91
2023-04-15T19:55:45.077Z,100248.47
2023-04-15T19:58:52.859Z,100247.84
2023-04-15T20:01:56.235Z,100250.69
2023-04-15T20:04:59.945Z,100254.53
2023-04-15T20:08:03.784Z,100250.66
2023-04-15T20:11:07.285Z,100253.28
2023-04-15T20:14:11.012Z,100254.28
2023-04-15T20:17:14.870Z,100260.38
2023-04-15T20:20:18.144Z,100257.69
2023-04-15T20:23:21.553Z,100256.53
2023-04-15T20:26:25.129Z,100254.28
2023-04-15T20:29:28.251Z,100248.81
2023-04-15T20:32:36.017Z,100243.72
2023-04-15T20:35:39.539Z,100246.97
2023-04-15T20:38:42.509Z,100245.72
2023-04-15T20:41:45.489Z,100252.25
2023-04-15T20:44:48.875Z,100247.94
2023-04-15T20:47:51.741Z,100255.88
2023-04-15T20:50:55.336Z,100259.94
2023-04-15T20:54:05.064Z,100263.13
2023-04-15T20:57:07.870Z,100261.50
2023-04-15T21:00:11.339Z,100258.66
2023-04-15T21:03:14.524Z,100271.03
2023-04-15T21:06:19.453Z,100269.22
2023-04-15T21:09:22.985Z,100270.47
2023-04-15T21:12:25.997Z,100279.41
2023-04-15T21:15:29.618Z,100283.53
2023-04-15T21:18:32.518Z,100289.25
2023-04-15T21:21:35.833Z,100279.88
2023-04-15T21:24:38.898Z,100284.16
2023-04-15T21:27:41.755Z,100286.81
2023-04-15T21:30:45.930Z,100288.25
2023-04-15T21:33:49.016Z,100293.72
2023-04-15T21:36:51.918Z,100297.22
2023-04-15T21:39:54.887Z,100299.25
2023-04-15T21:42:57.635Z,100300.03
2023-04-15T21:46:23.647Z,100303.53
2023-04-15T21:49:25.375Z,100297.41
2023-04-15T21:52:28.408Z,100308.56
2023-04-15T21:55:31.294Z,100303.13
2023-04-15T21:58:34.099Z,100306.53
2023-04-15T22:01:36.976Z,100307.59
2023-04-15T22:04:40.028Z,100307.59
2023-04-15T22:07:43.190Z,100309.41
2023-04-15T22:10:46.003Z,100286.69
2023-04-15T22:13:49.233Z,100285.03
2023-04-15T22:16:52.162Z,100286.28
2023-04-15T22:19:55.159Z,100289.31
2023-04-15T22:22:58.410Z,100289.31
2023-04-15T22:26:01.487Z,100298.66
2023-04-15T22:29:04.671Z,100321.03
2023-04-15T22:32:08.501Z,100334.25
2023-04-15T22:35:11.422Z,100337.88
2023-04-15T22:38:14.333Z,100348.91
2023-04-15T22:41:17.244Z,100350.50
2023-04-15T22:44:20.344Z,100343.19
2023-04-15T22:47:23.098Z,100347.88
2023-04-15T22:50:31.407Z,100342.59
2023-04-15T22:53:34.507Z,100338.94
2023-04-15T22:56:37.738Z,100340.34
2023-04-15T22:59:40.804Z,100343.00
2023-04-15T23:02:43.822Z,100335.88
2023-04-15T23:05:46.916Z,100339.13
2023-04-15T23:08:50.616Z,100342.41
2023-04-15T23:11:54.002Z,100352.16
2023-04-15T23:14:56.794Z,100350.31
2023-04-15T23:18:00.772Z,100347.84
2023-04-15T23:21:04.198Z,100342.13
2023-04-15T23:24:07.284Z,100341.69
2023-04-15T23:27:10.171Z,100339.69
2023-04-15T23:30:13.309Z,100340.69
2023-04-15T23:33:16.340Z,100338.06
2023-04-15T23:36:19.381Z,100341.69
2023-04-15T23:39:22.150Z,100346.16
2023-04-15T23:42:25.029Z,100354.31
2023-04-15T23:45:28.059Z,100351.00
2023-04-15T23:48:31.465Z,100357.28
2023-04-15T23:51:34.302Z,100351.41
2023-04-15T23:54:37.494Z,100345.72
2023-04-15T23:57:41.261Z,100347.53
